createdAt,value
2018-12-02T00:00:47.407Z,10.20
2018-12-02T00:03:16.682Z,10.10
2018-12-02T00:05:45.537Z,10.10
2018-12-02T00:08:14.285Z,10.10
2018-12-02T00:10:42.911Z,10.10
2018-12-02T00:13:11.596Z,10.10
2018-12-02T00:15:41.235Z,10.20
2018-12-02T00:18:11.889Z,10.20
2018-12-02T00:20:40.881Z,10.20
2018-12-02T00:23:10.821Z,10.20
2018-12-02T00:25:40.189Z,10.20
2018-12-02T00:28:10.459Z,10.10
2018-12-02T00:30:41.337Z,10.10
2018-12-02T00:33:10.081Z,10.10
2018-12-02T00:35:38.849Z,10.10
2018-12-02T00:38:08.498Z,10.10
2018-12-02T00:40:37.335Z,10.10
2018-12-02T00:43:07.797Z,10.10
2018-12-02T00:45:37.560Z,10.10
2018-12-02T00:48:08.350Z,10.10
2018-12-02T00:50:37.094Z,10.20
2018-12-02T00:53:07.088Z,10.20
2018-12-02T00:55:43.252Z,10.20
2018-12-02T00:58:12.568Z,10.20
2018-12-02T01:00:42.073Z,10.20
2018-12-02T01:03:11.127Z,10.20
2018-12-02T01:05:39.752Z,10.30
2018-12-02T01:08:08.807Z,10.30
2018-12-02T01:10:37.921Z,10.30
2018-12-02T01:13:09.014Z,10.30
2018-12-02T01:15:38.982Z,10.40
2018-12-02T01:18:08.053Z,10.40
2018-12-02T01:20:38.247Z,10.40
2018-12-02T01:23:07.505Z,10.40
2018-12-02T01:25:37.939Z,10.40
2018-12-02T01:28:07.407Z,10.40
2018-12-02T01:30:37.181Z,10.40
2018-12-02T01:33:06.145Z,10.40
2018-12-02T01:35:34.846Z,10.40
2018-12-02T01:38:03.578Z,10.50
2018-12-02T01:40:32.362Z,10.50
2018-12-02T01:43:01.070Z,10.50
2018-12-02T01:45:29.720Z,10.50
2018-12-02T01:47:58.396Z,10.50
2018-12-02T01:50:28.043Z,10.50
2018-12-02T01:52:57.395Z,10.50
2018-12-02T01:55:26.135Z,10.50
2018-12-02T01:57:54.827Z,10.50
2018-12-02T02:00:24.755Z,10.60
2018-12-02T02:02:53.919Z,10.60
2018-12-02T02:05:24.972Z,10.60
2018-12-02T02:07:54.117Z,10.60
2018-12-02T02:10:25.924Z,10.60
2018-12-02T02:12:54.767Z,10.60
2018-12-02T02:15:23.668Z,10.50
2018-12-02T02:17:52.703Z,10.50
2018-12-02T02:20:23.983Z,10.50
2018-12-02T02:22:52.666Z,10.40
2018-12-02T02:25:23.160Z,10.40
2018-12-02T02:27:54.481Z,10.40
2018-12-02T02:30:25.171Z,10.40
2018-12-02T02:32:53.938Z,10.40
2018-12-02T02:35:23.003Z,10.40
2018-12-02T02:37:52.803Z,10.40
2018-12-02T02:40:23.539Z,10.40
2018-12-02T02:42:52.311Z,10.40
2018-12-02T02:45:21.228Z,10.40
2018-12-02T02:47:49.873Z,10.40
2018-12-02T02:50:21.317Z,10.40
2018-12-02T02:52:57.915Z,10.40
2018-12-02T02:55:26.533Z,10.40
2018-12-02T02:57:55.252Z,10.40
2018-12-02T03:00:25.083Z,10.40
2018-12-02T03:02:53.771Z,10.30
2018-12-02T03:05:22.630Z,10.30
2018-12-02T03:07:51.382Z,10.30
2018-12-02T03:10:21.107Z,10.30
2018-12-02T03:12:54.301Z,10.30
2018-12-02T03:15:23.936Z,10.40
2018-12-02T03:17:52.584Z,10.40
2018-12-02T03:20:22.051Z,10.30
2018-12-02T03:22:53.493Z,10.30
2018-12-02T03:25:23.459Z,10.30
2018-12-02T03:27:52.184Z,10.30
2018-12-02T03:30:22.809Z,10.40
2018-12-02T03:32:51.450Z,10.40
2018-12-02T03:35:21.854Z,10.40
2018-12-02T03:37:50.557Z,10.40
2018-12-02T03:40:22.215Z,10.40
2018-12-02T03:42:51.480Z,10.40
2018-12-02T03:45:21.289Z,10.40
2018-12-02T03:47:49.945Z,10.40
2018-12-02T03:50:20.354Z,10.40
2018-12-02T03:52:49.046Z,10.40
2018-12-02T03:55:17.735Z,10.40
2018-12-02T03:57:46.447Z,10.40
2018-12-02T04:00:19.230Z,10.40
2018-12-02T04:02:48.047Z,10.40
2018-12-02T04:05:18.752Z,10.40
2018-12-02T04:07:47.431Z,10.40
2018-12-02T04:10:16.762Z,10.40
2018-12-02T04:12:46.121Z,10.40
2018-12-02T04:15:18.542Z,10.40
2018-12-02T04:17:47.341Z,10.40
2018-12-02T04:20:16.584Z,10.40
2018-12-02T04:22:45.931Z,10.40
2018-12-02T04:25:15.555Z,10.40
2018-12-02T04:27:44.236Z,10.40
2018-12-02T04:30:17.814Z,10.40
2018-12-02T04:32:47.161Z,10.40
2018-12-02T04:35:17.034Z,10.40
2018-12-02T04:37:45.584Z,10.40
2018-12-02T04:40:14.587Z,10.40
2018-12-02T04:42:43.312Z,10.40
2018-12-02T04:45:13.868Z,10.40
2018-12-02T04:47:42.682Z,10.40
2018-12-02T04:50:16.680Z,10.40
2018-12-02T04:52:45.757Z,10.40
2018-12-02T04:55:14.435Z,10.40
2018-12-02T04:57:43.087Z,10.40
2018-12-02T05:00:14.666Z,10.40
2018-12-02T05:02:43.856Z,10.40
2018-12-02T05:05:16.589Z,10.40
2018-12-02T05:07:45.276Z,10.40
2018-12-02T05:10:15.810Z,10.40
2018-12-02T05:12:44.574Z,10.40
2018-12-02T05:15:17.735Z,10.40
2018-12-02T05:17:46.368Z,10.50
2018-12-02T05:20:17.970Z,10.50
2018-12-02T05:22:46.665Z,10.50
2018-12-02T05:25:18.121Z,10.40
2018-12-02T05:27:45.569Z,10.50
2018-12-02T05:30:15.184Z,10.50
2018-12-02T05:32:44.372Z,10.50
2018-12-02T05:35:13.883Z,10.50
2018-12-02T05:37:42.623Z,10.50
2018-12-02T05:40:12.329Z,10.50
2018-12-02T05:42:40.949Z,10.50
2018-12-02T05:45:11.623Z,10.50
2018-12-02T05:47:40.256Z,10.60
2018-12-02T05:50:17.054Z,10.60
2018-12-02T05:52:46.814Z,10.60
2018-12-02T05:55:16.910Z,10.60
2018-12-02T05:57:45.577Z,10.50
2018-12-02T06:00:16.002Z,10.60
2018-12-02T06:02:44.630Z,10.50
2018-12-02T06:05:13.750Z,10.50
2018-12-02T06:07:42.470Z,10.50
2018-12-02T06:10:13.264Z,10.50
2018-12-02T06:12:41.948Z,10.50
2018-12-02T06:15:11.607Z,10.60
2018-12-02T06:17:40.375Z,10.60
2018-12-02T06:20:14.283Z,10.60
2018-12-02T06:22:43.168Z,10.60
2018-12-02T06:25:11.885Z,10.60
2018-12-02T06:27:40.569Z,10.60
2018-12-02T06:30:13.559Z,10.60
2018-12-02T06:32:42.219Z,10.60
2018-12-02T06:35:11.930Z,10.60
2018-12-02T06:37:40.609Z,10.60
2018-12-02T06:40:25.850Z,10.60
2018-12-02T06:42:54.592Z,10.60
2018-12-02T06:45:23.207Z,10.70
2018-12-02T06:47:51.870Z,10.70
2018-12-02T06:50:22.392Z,10.70
2018-12-02T06:52:51.280Z,10.70
2018-12-02T06:55:31.873Z,10.70
2018-12-02T07:00:14.949Z,10.80
2018-12-02T07:02:59.385Z,10.80
2018-12-02T07:05:32.798Z,10.80
2018-12-02T07:08:01.403Z,10.80
2018-12-02T07:10:30.049Z,10.80
2018-12-02T07:12:59.539Z,10.80
2018-12-02T07:15:28.221Z,10.80
2018-12-02T07:17:59.523Z,10.80
2018-12-02T07:20:28.069Z,10.90
2018-12-02T07:23:03.863Z,10.90
2018-12-02T07:25:35.050Z,10.90
2018-12-02T07:28:03.945Z,10.90
2018-12-02T07:30:32.560Z,11.00
2018-12-02T07:33:01.470Z,11.00
2018-12-02T07:35:36.198Z,11.00
2018-12-02T07:38:19.364Z,11.00
2018-12-02T07:40:48.696Z,11.10
2018-12-02T07:43:17.583Z,11.10
2018-12-02T07:45:47.330Z,11.10
2018-12-02T07:48:15.979Z,11.10
2018-12-02T07:50:47.346Z,11.20
2018-12-02T07:53:15.991Z,11.20
2018-12-02T07:55:45.378Z,11.20
2018-12-02T07:58:15.063Z,11.20
2018-12-02T08:00:45.133Z,11.30
2018-12-02T08:03:13.924Z,11.40
2018-12-02T08:05:42.562Z,11.40
2018-12-02T08:08:11.312Z,11.40
2018-12-02T08:10:41.475Z,11.40
2018-12-02T08:13:10.243Z,11.50
2018-12-02T08:15:41.642Z,11.50
2018-12-02T08:18:14.483Z,11.50
2018-12-02T08:20:45.976Z,11.60
2018-12-02T08:23:22.526Z,11.60
2018-12-02T08:25:52.436Z,11.60
2018-12-02T08:28:21.195Z,11.60
2018-12-02T08:30:50.163Z,11.70
2018-12-02T08:33:19.412Z,11.70
2018-12-02T08:35:48.403Z,11.80
2018-12-02T08:38:17.087Z,11.80
2018-12-02T08:40:46.056Z,11.80
2018-12-02T08:43:14.698Z,11.80
2018-12-02T08:45:43.400Z,11.90
2018-12-02T08:48:12.285Z,11.80
2018-12-02T08:50:41.196Z,11.90
2018-12-02T08:53:09.898Z,11.90
2018-12-02T08:55:38.583Z,11.90
2018-12-02T08:58:07.373Z,12.00
2018-12-02T09:00:36.159Z,12.00
2018-12-02T09:03:07.577Z,12.00
2018-12-02T09:05:36.371Z,12.10
2018-12-02T09:08:05.845Z,12.10
2018-12-02T09:10:34.580Z,12.10
2018-12-02T09:13:04.748Z,12.10
2018-12-02T09:15:33.382Z,12.10
2018-12-02T09:18:02.014Z,12.10
2018-12-02T09:20:34.259Z,12.20
2018-12-02T09:23:03.107Z,12.20
2018-12-02T09:25:31.782Z,12.20
2018-12-02T09:28:00.411Z,12.30
2018-12-02T09:30:29.912Z,12.30
2018-12-02T09:32:58.637Z,12.30
2018-12-02T09:35:27.309Z,12.40
2018-12-02T09:37:55.968Z,12.50
2018-12-02T09:40:24.628Z,12.50
2018-12-02T09:42:55.057Z,12.60
2018-12-02T09:45:26.526Z,12.60
2018-12-02T09:47:56.409Z,12.60
2018-12-02T09:50:25.138Z,12.60
2018-12-02T09:52:53.816Z,12.70
2018-12-02T09:55:25.691Z,12.60
2018-12-02T09:57:55.062Z,12.70
2018-12-02T10:00:23.780Z,12.60
2018-12-02T10:02:52.492Z,12.60
2018-12-02T10:05:21.196Z,12.60
2018-12-02T10:07:49.798Z,12.60
2018-12-02T10:10:22.671Z,12.60
2018-12-02T10:12:58.551Z,12.60
2018-12-02T10:15:27.296Z,12.60
2018-12-02T10:18:01.589Z,12.60
2018-12-02T10:20:30.107Z,12.60
2018-12-02T10:22:58.708Z,12.60
2018-12-02T10:25:27.316Z,12.70
2018-12-02T10:27:55.948Z,12.70
2018-12-02T10:30:25.218Z,12.70
2018-12-02T10:32:55.962Z,12.80
2018-12-02T10:35:24.508Z,12.80
2018-12-02T10:37:55.744Z,12.80
2018-12-02T10:40:26.842Z,12.80
2018-12-02T10:42:55.700Z,12.90
2018-12-02T10:45:26.507Z,12.90
2018-12-02T10:47:58.988Z,13.00
2018-12-02T10:50:30.944Z,13.00
2018-12-02T10:53:00.988Z,13.00
2018-12-02T10:55:41.261Z,13.00
2018-12-02T10:58:16.912Z,13.10
2018-12-02T11:00:50.857Z,13.10
2018-12-02T11:03:20.819Z,13.10
2018-12-02T11:05:50.167Z,13.10
2018-12-02T11:08:18.896Z,13.20
2018-12-02T11:10:48.281Z,13.20
2018-12-02T11:13:17.598Z,13.20
2018-12-02T11:15:46.303Z,13.20
2018-12-02T11:18:15.374Z,13.30
2018-12-02T11:20:45.234Z,13.30
2018-12-02T11:23:16.479Z,13.30
2018-12-02T11:25:45.284Z,13.30
2018-12-02T11:28:13.910Z,13.30
2018-12-02T11:30:43.071Z,13.30
2018-12-02T11:33:11.790Z,13.40
2018-12-02T11:35:41.531Z,13.40
2018-12-02T11:38:11.846Z,13.30
2018-12-02T11:40:42.745Z,13.40
2018-12-02T11:43:12.280Z,13.40
2018-12-02T11:45:41.630Z,13.40
2018-12-02T11:48:10.703Z,13.40
2018-12-02T11:50:39.615Z,13.50
2018-12-02T11:53:09.417Z,13.50
2018-12-02T11:55:38.221Z,13.50
2018-12-02T11:58:07.301Z,13.50
2018-12-02T12:00:39.652Z,13.50
2018-12-02T12:03:09.141Z,13.50
2018-12-02T12:05:38.814Z,13.60
2018-12-02T12:08:09.819Z,13.60
2018-12-02T12:10:38.816Z,13.60
2018-12-02T12:13:08.606Z,13.60
2018-12-02T12:15:38.118Z,13.60
2018-12-02T12:18:08.915Z,13.60
2018-12-02T12:20:46.021Z,13.50
2018-12-02T12:23:20.308Z,13.50
2018-12-02T12:25:49.117Z,13.50
2018-12-02T12:28:18.113Z,13.50
2018-12-02T12:30:47.955Z,13.50
2018-12-02T12:33:16.785Z,13.50
2018-12-02T12:35:47.368Z,13.50
2018-12-02T12:38:16.289Z,13.50
2018-12-02T12:40:45.895Z,13.40
2018-12-02T12:43:34.217Z,13.40
2018-12-02T12:46:03.530Z,13.40
2018-12-02T12:48:32.397Z,13.40
2018-12-02T12:51:02.376Z,13.40
2018-12-02T12:53:31.275Z,13.40
2018-12-02T12:56:00.579Z,13.40
2018-12-02T12:58:29.337Z,13.50
2018-12-02T13:00:58.052Z,13.50
2018-12-02T13:03:26.862Z,13.50
2018-12-02T13:05:56.186Z,13.50
2018-12-02T13:08:25.124Z,13.50
2018-12-02T13:10:54.367Z,13.50
2018-12-02T13:13:23.242Z,13.50
2018-12-02T13:15:52.597Z,13.50
2018-12-02T13:18:21.987Z,13.50
2018-12-02T13:20:54.349Z,13.50
2018-12-02T13:23:23.777Z,13.50
2018-12-02T13:25:52.609Z,13.50
2018-12-02T13:28:21.251Z,13.40
2018-12-02T13:30:50.054Z,13.40
2018-12-02T13:33:18.884Z,13.40
2018-12-02T13:35:47.987Z,13.30
2018-12-02T13:38:16.810Z,13.30
2018-12-02T13:40:45.955Z,13.30
2018-12-02T13:43:17.038Z,13.30
2018-12-02T13:45:47.387Z,13.30
2018-12-02T13:48:17.731Z,13.30
2018-12-02T13:50:46.446Z,13.30
2018-12-02T13:53:15.090Z,13.30
2018-12-02T13:55:43.796Z,13.30
2018-12-02T13:58:12.531Z,13.30
2018-12-02T14:00:44.427Z,13.30
2018-12-02T14:03:15.943Z,13.30
2018-12-02T14:05:46.726Z,13.30
2018-12-02T14:08:15.433Z,13.30
2018-12-02T14:10:44.887Z,13.30
2018-12-02T14:13:15.878Z,13.30
2018-12-02T14:16:08.559Z,13.30
2018-12-02T14:18:41.036Z,13.30
2018-12-02T14:21:09.680Z,13.30
2018-12-02T14:23:40.590Z,13.30
2018-12-02T14:26:11.849Z,13.30
2018-12-02T14:28:49.520Z,13.30
2018-12-02T14:31:19.751Z,13.30
2018-12-02T14:33:48.939Z,13.20
2018-12-02T14:36:17.586Z,13.30
2018-12-02T14:38:46.378Z,13.30
2018-12-02T14:41:15.007Z,13.30
2018-12-02T14:43:43.546Z,13.30
2018-12-02T14:46:12.205Z,13.30
2018-12-02T14:48:41.717Z,13.30
2018-12-02T14:51:11.246Z,13.30
2018-12-02T14:53:39.853Z,13.20
2018-12-02T14:56:09.132Z,13.30
2018-12-02T14:58:38.726Z,13.30
2018-12-02T15:01:07.954Z,13.30
2018-12-02T15:03:39.283Z,13.30
2018-12-02T15:06:07.940Z,13.20
2018-12-02T15:08:37.325Z,13.30
2018-12-02T15:11:07.517Z,13.30
2018-12-02T15:13:36.180Z,13.30
2018-12-02T15:16:05.898Z,13.30
2018-12-02T15:18:35.888Z,13.30
2018-12-02T15:21:04.624Z,13.40
2018-12-02T15:23:34.289Z,13.40
2018-12-02T15:26:02.985Z,13.40
2018-12-02T15:28:32.651Z,13.40
2018-12-02T15:31:02.246Z,13.40
2018-12-02T15:33:30.888Z,13.40
2018-12-02T15:36:00.614Z,13.40
2018-12-02T15:38:29.332Z,13.40
2018-12-02T15:40:58.990Z,13.40
2018-12-02T15:43:27.663Z,13.40
2018-12-02T15:45:56.310Z,13.40
2018-12-02T15:48:25.508Z,13.40
2018-12-02T15:50:54.471Z,13.40
2018-12-02T15:53:23.273Z,13.40
2018-12-02T15:55:52.013Z,13.40
2018-12-02T15:58:21.829Z,13.40
2018-12-02T16:00:51.621Z,13.40
2018-12-02T16:03:20.711Z,13.40
2018-12-02T16:05:50.291Z,13.40
2018-12-02T16:08:18.982Z,13.40
2018-12-02T16:10:47.788Z,13.40
2018-12-02T16:13:16.459Z,13.40
2018-12-02T16:15:45.519Z,13.30
2018-12-02T16:18:15.196Z,13.30
2018-12-02T16:20:46.423Z,13.40
2018-12-02T16:23:18.212Z,13.40
2018-12-02T16:25:46.836Z,13.40
2018-12-02T16:28:18.920Z,13.40
2018-12-02T16:30:49.452Z,13.40
2018-12-02T16:33:18.301Z,13.40
2018-12-02T16:35:47.057Z,13.40
2018-12-02T16:38:16.608Z,13.40
2018-12-02T16:40:46.149Z,13.40
2018-12-02T16:43:15.295Z,13.40
2018-12-02T16:45:44.182Z,13.30
2018-12-02T16:48:12.880Z,13.30
2018-12-02T16:50:43.581Z,13.30
2018-12-02T16:53:27.725Z,13.30
2018-12-02T16:56:08.828Z,13.30
2018-12-02T16:58:45.516Z,13.30
2018-12-02T17:01:22.105Z,13.30
2018-12-02T17:03:53.176Z,13.30
2018-12-02T17:06:22.016Z,13.30
2018-12-02T17:08:50.745Z,13.20
2018-12-02T17:11:19.882Z,13.20
2018-12-02T17:13:48.800Z,13.20
2018-12-02T17:16:18.183Z,13.20
2018-12-02T17:18:47.083Z,13.30
2018-12-02T17:21:15.946Z,13.30
2018-12-02T17:23:45.909Z,13.30
2018-12-02T17:26:13.421Z,13.30
2018-12-02T17:28:42.373Z,13.30
2018-12-02T17:31:18.238Z,13.30
2018-12-02T17:33:47.571Z,13.20
2018-12-02T17:36:16.292Z,13.20
2018-12-02T17:38:45.676Z,13.20
2018-12-02T17:41:15.500Z,13.20
2018-12-02T17:43:44.392Z,13.20
2018-12-02T17:46:13.158Z,13.20
2018-12-02T17:48:42.360Z,13.30
2018-12-02T17:51:11.101Z,13.20
2018-12-02T17:53:41.779Z,13.30
2018-12-02T17:56:10.859Z,13.30
2018-12-02T17:58:39.742Z,13.30
2018-12-02T18:01:09.371Z,13.30
2018-12-02T18:03:38.595Z,13.30
2018-12-02T18:06:09.173Z,13.30
2018-12-02T18:08:37.993Z,13.30
2018-12-02T18:11:06.897Z,13.30
2018-12-02T18:13:36.531Z,13.30
2018-12-02T18:16:04.442Z,13.30
2018-12-02T18:18:33.114Z,13.30
2018-12-02T18:21:01.988Z,13.30
2018-12-02T18:23:30.795Z,13.30
2018-12-02T18:26:00.176Z,13.40
2018-12-02T18:28:28.916Z,13.40
2018-12-02T18:30:57.674Z,13.40
2018-12-02T18:33:26.419Z,13.40
2018-12-02T18:36:01.159Z,13.40
2018-12-02T18:38:31.991Z,13.40
2018-12-02T18:41:10.155Z,13.40
2018-12-02T18:43:38.963Z,13.40
2018-12-02T18:46:08.220Z,13.40
2018-12-02T18:48:36.927Z,13.40
2018-12-02T18:51:06.269Z,13.40
2018-12-02T18:53:35.162Z,13.40
2018-12-02T18:56:04.065Z,13.40
2018-12-02T18:58:32.784Z,13.40
2018-12-02T19:01:01.506Z,13.40
2018-12-02T19:03:30.129Z,13.40
2018-12-02T19:05:58.844Z,13.40
2018-12-02T19:08:27.471Z,13.40
2018-12-02T19:10:57.545Z,13.40
2018-12-02T19:13:26.232Z,13.40
2018-12-02T19:15:55.002Z,13.40
2018-12-02T19:18:24.246Z,13.40
2018-12-02T19:20:54.992Z,13.40
2018-12-02T19:23:27.731Z,13.40
2018-12-02T19:25:56.432Z,13.40
2018-12-02T19:28:25.214Z,13.40
2018-12-02T19:30:54.219Z,13.40
2018-12-02T19:33:24.337Z,13.40
2018-12-02T19:35:56.434Z,13.40
2018-12-02T19:38:25.567Z,13.40
2018-12-02T19:40:54.849Z,13.40
2018-12-02T19:43:23.667Z,13.40
2018-12-02T19:45:53.048Z,13.40
2018-12-02T19:48:22.942Z,13.40
2018-12-02T19:50:51.825Z,13.40
2018-12-02T19:53:20.501Z,13.40
2018-12-02T19:55:49.287Z,13.40
2018-12-02T19:58:18.031Z,13.40
2018-12-02T20:00:47.800Z,13.40
2018-12-02T20:03:17.517Z,13.40
2018-12-02T20:05:47.664Z,13.30
2018-12-02T20:08:17.658Z,13.30
2018-12-02T20:10:48.942Z,13.30
2018-12-02T20:13:18.905Z,13.30
2018-12-02T20:15:53.999Z,13.20
2018-12-02T20:18:22.793Z,13.30
2018-12-02T20:20:55.599Z,13.30
2018-12-02T20:23:30.038Z,13.20
2018-12-02T20:26:00.481Z,13.20
2018-12-02T20:28:33.088Z,13.20
2018-12-02T20:31:04.357Z,13.20
2018-12-02T20:33:37.872Z,13.20
2018-12-02T20:36:07.656Z,13.20
2018-12-02T20:38:36.557Z,13.20
2018-12-02T20:41:06.240Z,13.20
2018-12-02T20:43:35.462Z,13.20
2018-12-02T20:46:04.367Z,13.20
2018-12-02T20:48:33.734Z,13.20
2018-12-02T20:51:02.667Z,13.30
2018-12-02T20:53:32.368Z,13.20
2018-12-02T20:56:01.124Z,13.30
2018-12-02T20:58:29.804Z,13.30
2018-12-02T21:00:59.932Z,13.30
2018-12-02T21:03:31.528Z,13.30
2018-12-02T21:06:03.992Z,13.30
2018-12-02T21:08:32.892Z,13.30
2018-12-02T21:11:01.693Z,13.30
2018-12-02T21:13:30.718Z,13.30
2018-12-02T21:15:59.722Z,13.30
2018-12-02T21:18:28.409Z,13.30
2018-12-02T21:20:57.046Z,13.30
2018-12-02T21:23:25.815Z,13.30
2018-12-02T21:25:54.817Z,13.30
2018-12-02T21:28:25.199Z,13.20
2018-12-02T21:30:53.913Z,13.20
2018-12-02T21:33:22.506Z,13.20
2018-12-02T21:35:51.948Z,13.20
2018-12-02T21:38:20.677Z,13.20
2018-12-02T21:40:49.355Z,13.20
2018-12-02T21:43:18.036Z,13.20
2018-12-02T21:45:46.736Z,13.10
2018-12-02T21:48:18.248Z,13.10
2018-12-02T21:50:51.129Z,13.20
2018-12-02T21:53:19.929Z,13.20
2018-12-02T21:55:48.714Z,13.20
2018-12-02T21:58:17.488Z,13.20
2018-12-02T22:00:51.518Z,13.20
2018-12-02T22:03:20.245Z,13.20
2018-12-02T22:05:48.909Z,13.20
2018-12-02T22:08:17.629Z,13.20
2018-12-02T22:10:46.696Z,13.20
2018-12-02T22:13:15.356Z,13.20
2018-12-02T22:15:44.097Z,13.20
2018-12-02T22:18:12.946Z,13.20
2018-12-02T22:20:41.921Z,13.20
2018-12-02T22:23:10.632Z,13.20
2018-12-02T22:25:39.310Z,13.20
2018-12-02T22:28:09.004Z,13.20
2018-12-02T22:30:37.829Z,13.20
2018-12-02T22:33:07.087Z,13.30
2018-12-02T22:35:36.350Z,13.30
2018-12-02T22:38:05.010Z,13.30
2018-12-02T22:40:33.724Z,13.30
2018-12-02T22:43:03.165Z,13.30
2018-12-02T22:45:32.650Z,13.30
2018-12-02T22:48:01.790Z,13.30
2018-12-02T22:50:30.586Z,13.40
2018-12-02T22:53:00.203Z,13.40
2018-12-02T22:55:28.977Z,13.40
2018-12-02T22:57:57.835Z,13.40
2018-12-02T23:00:35.669Z,13.40
2018-12-02T23:03:10.905Z,13.40
2018-12-02T23:05:40.254Z,13.40
2018-12-02T23:08:09.068Z,13.40
2018-12-02T23:10:37.835Z,13.40
2018-12-02T23:13:07.818Z,13.40
2018-12-02T23:15:36.831Z,13.40
2018-12-02T23:18:06.633Z,13.40
2018-12-02T23:20:35.457Z,13.40
2018-12-02T23:23:04.257Z,13.40
2018-12-02T23:25:32.985Z,13.40
2018-12-02T23:28:02.059Z,13.40
2018-12-02T23:30:30.733Z,13.40
2018-12-02T23:32:59.526Z,13.40
2018-12-02T23:35:28.232Z,13.30
2018-12-02T23:37:56.938Z,13.30
2018-12-02T23:40:26.329Z,13.30
2018-12-02T23:42:55.052Z,13.30
2018-12-02T23:45:23.675Z,13.30
2018-12-02T23:47:52.284Z,13.40
2018-12-02T23:50:23.222Z,13.40
2018-12-02T23:52:52.239Z,13.30
2018-12-02T23:55:21.663Z,13.30
2018-12-02T23:57:50.774Z,13.30
